RJOZ(METAR)
07/27 17:00
METAR RJOZ 270800Z 01011KT 9999 FEW030 35/22 Q1000 RMK 1CU030 A2954=
戻る
トップページへ戻る
IMOC Co,.Ltd.